sensor_id;sensor_type;location;lat;lon;timestamp;pressure;altitude;pressure_sealevel;temperature;humidity
76216;BME280;65010;50.190;18.930;2023-04-29T00:01:56;98098.69;;;12.90;37.88
76216;BME280;65010;50.190;18.930;2023-04-29T00:05:03;98096.00;;;12.83;38.77
76216;BME280;65010;50.190;18.930;2023-04-29T00:08:13;98090.28;;;12.73;36.94
76216;BME280;65010;50.190;18.930;2023-04-29T00:11:19;98094.72;;;12.73;37.22
76216;BME280;65010;50.190;18.930;2023-04-29T00:14:25;98091.88;;;12.74;37.89
76216;BME280;65010;50.190;18.930;2023-04-29T00:17:31;98094.69;;;12.66;37.79
76216;BME280;65010;50.190;18.930;2023-04-29T00:20:38;98089.28;;;12.46;38.38
76216;BME280;65010;50.190;18.930;2023-04-29T00:23:47;98092.16;;;12.29;38.50
76216;BME280;65010;50.190;18.930;2023-04-29T00:26:53;98080.06;;;12.14;38.74
76216;BME280;65010;50.190;18.930;2023-04-29T00:30:00;98080.66;;;12.09;39.12
76216;BME280;65010;50.190;18.930;2023-04-29T00:33:06;98074.69;;;12.00;39.68
76216;BME280;65010;50.190;18.930;2023-04-29T00:36:12;98064.88;;;11.87;38.75
76216;BME280;65010;50.190;18.930;2023-04-29T00:39:21;98066.75;;;11.94;39.24
76216;BME280;65010;50.190;18.930;2023-04-29T00:42:28;98065.31;;;11.91;39.21
76216;BME280;65010;50.190;18.930;2023-04-29T00:45:36;98056.34;;;11.85;38.87
76216;BME280;65010;50.190;18.930;2023-04-29T00:48:42;98065.81;;;11.80;38.81
76216;BME280;65010;50.190;18.930;2023-04-29T00:51:49;98059.16;;;11.84;39.44
76216;BME280;65010;50.190;18.930;2023-04-29T00:54:58;98064.50;;;11.91;39.80
76216;BME280;65010;50.190;18.930;2023-04-29T00:58:05;98066.19;;;11.77;39.57
76216;BME280;65010;50.190;18.930;2023-04-29T01:01:12;98069.00;;;11.75;40.32
76216;BME280;65010;50.190;18.930;2023-04-29T01:04:18;98064.72;;;11.74;40.86
76216;BME280;65010;50.190;18.930;2023-04-29T01:07:30;98071.38;;;11.70;41.06
76216;BME280;65010;50.190;18.930;2023-04-29T01:10:53;98069.19;;;11.74;40.45
76216;BME280;65010;50.190;18.930;2023-04-29T01:14:05;98069.81;;;11.76;40.98
76216;BME280;65010;50.190;18.930;2023-04-29T01:17:22;98039.91;;;11.62;41.49
76216;BME280;65010;50.190;18.930;2023-04-29T01:20:32;98077.03;;;11.88;41.05
76216;BME280;65010;50.190;18.930;2023-04-29T01:23:44;98067.13;;;11.91;41.16
76216;BME280;65010;50.190;18.930;2023-04-29T01:26:58;98072.28;;;11.99;41.28
76216;BME280;65010;50.190;18.930;2023-04-29T01:30:31;98068.38;;;11.95;41.67
76216;BME280;65010;50.190;18.930;2023-04-29T01:33:54;98085.97;;;11.94;41.91
76216;BME280;65010;50.190;18.930;2023-04-29T01:37:17;98076.47;;;11.93;42.55
76216;BME280;65010;50.190;18.930;2023-04-29T01:40:35;98073.25;;;11.98;42.59
76216;BME280;65010;50.190;18.930;2023-04-29T01:43:55;98068.63;;;12.00;41.51
76216;BME280;65010;50.190;18.930;2023-04-29T01:47:04;98070.88;;;12.03;41.70
76216;BME280;65010;50.190;18.930;2023-04-29T01:50:17;98071.94;;;12.08;42.21
76216;BME280;65010;50.190;18.930;2023-04-29T01:53:23;98070.56;;;12.13;41.38
76216;BME280;65010;50.190;18.930;2023-04-29T01:56:33;98061.00;;;12.12;41.45
76216;BME280;65010;50.190;18.930;2023-04-29T01:59:55;98070.66;;;12.04;41.12
76216;BME280;65010;50.190;18.930;2023-04-29T02:03:28;98059.03;;;11.92;41.90
76216;BME280;65010;50.190;18.930;2023-04-29T02:06:36;98060.81;;;11.85;41.39
76216;BME280;65010;50.190;18.930;2023-04-29T02:09:43;98063.34;;;11.78;41.44
76216;BME280;65010;50.190;18.930;2023-04-29T02:12:51;98054.47;;;11.79;41.77
76216;BME280;65010;50.190;18.930;2023-04-29T02:16:06;98052.50;;;11.88;42.50
76216;BME280;65010;50.190;18.930;2023-04-29T02:19:20;98044.25;;;11.91;41.95
76216;BME280;65010;50.190;18.930;2023-04-29T02:22:31;98062.22;;;11.87;41.40
76216;BME280;65010;50.190;18.930;2023-04-29T02:25:36;98058.41;;;11.68;42.06
76216;BME280;65010;50.190;18.930;2023-04-29T02:28:45;98055.69;;;11.62;41.89
76216;BME280;65010;50.190;18.930;2023-04-29T02:31:51;98054.28;;;11.59;42.14
76216;BME280;65010;50.190;18.930;2023-04-29T02:34:58;98058.63;;;11.52;42.55
76216;BME280;65010;50.190;18.930;2023-04-29T02:38:04;98044.22;;;11.48;42.46
76216;BME280;65010;50.190;18.930;2023-04-29T02:41:15;98053.13;;;11.47;42.71
76216;BME280;65010;50.190;18.930;2023-04-29T02:44:25;98050.44;;;11.40;43.01
76216;BME280;65010;50.190;18.930;2023-04-29T02:47:35;98048.81;;;11.39;43.58
76216;BME280;65010;50.190;18.930;2023-04-29T02:50:41;98043.72;;;11.38;43.37
76216;BME280;65010;50.190;18.930;2023-04-29T02:53:47;98040.09;;;11.39;44.22
76216;BME280;65010;50.190;18.930;2023-04-29T02:56:55;98040.47;;;11.36;43.17
76216;BME280;65010;50.190;18.930;2023-04-29T03:00:05;98036.84;;;11.37;43.90
76216;BME280;65010;50.190;18.930;2023-04-29T03:03:12;98034.03;;;11.38;43.64
76216;BME280;65010;50.190;18.930;2023-04-29T03:06:19;98032.22;;;11.39;43.56
76216;BME280;65010;50.190;18.930;2023-04-29T03:09:25;98027.75;;;11.39;43.78
76216;BME280;65010;50.190;18.930;2023-04-29T03:12:33;98018.59;;;11.35;43.54
76216;BME280;65010;50.190;18.930;2023-04-29T03:15:41;98015.72;;;11.30;44.13
76216;BME280;65010;50.190;18.930;2023-04-29T03:18:47;98020.16;;;11.29;44.67
76216;BME280;65010;50.190;18.930;2023-04-29T03:21:53;98019.53;;;11.27;44.57
76216;BME280;65010;50.190;18.930;2023-04-29T03:25:03;98005.28;;;11.22;44.47
76216;BME280;65010;50.190;18.930;2023-04-29T03:28:09;98017.63;;;11.21;45.20
76216;BME280;65010;50.190;18.930;2023-04-29T03:31:21;98012.63;;;11.12;44.52
76216;BME280;65010;50.190;18.930;2023-04-29T03:34:28;98015.72;;;11.15;44.61
76216;BME280;65010;50.190;18.930;2023-04-29T03:37:50;98016.09;;;11.27;45.44
76216;BME280;65010;50.190;18.930;2023-04-29T03:41:03;98019.00;;;11.32;45.01
76216;BME280;65010;50.190;18.930;2023-04-29T03:44:13;98009.44;;;11.31;44.42
76216;BME280;65010;50.190;18.930;2023-04-29T03:47:21;98017.53;;;11.29;44.00
76216;BME280;65010;50.190;18.930;2023-04-29T03:50:28;98030.31;;;11.33;45.06
76216;BME280;65010;50.190;18.930;2023-04-29T03:53:34;98026.97;;;11.24;44.56
76216;BME280;65010;50.190;18.930;2023-04-29T03:56:42;98025.81;;;11.26;45.31
76216;BME280;65010;50.190;18.930;2023-04-29T03:59:47;98021.16;;;11.28;45.47
76216;BME280;65010;50.190;18.930;2023-04-29T04:02:58;98023.19;;;11.26;45.81
76216;BME280;65010;50.190;18.930;2023-04-29T04:06:08;98025.06;;;11.18;45.07
76216;BME280;65010;50.190;18.930;2023-04-29T04:09:14;98023.38;;;11.10;44.78
76216;BME280;65010;50.190;18.930;2023-04-29T04:12:20;98023.91;;;11.05;45.00
76216;BME280;65010;50.190;18.930;2023-04-29T04:15:27;98027.09;;;11.01;45.47
76216;BME280;65010;50.190;18.930;2023-04-29T04:18:36;98029.66;;;10.94;45.21
76216;BME280;65010;50.190;18.930;2023-04-29T04:21:43;98030.38;;;10.88;45.24
76216;BME280;65010;50.190;18.930;2023-04-29T04:24:49;98030.91;;;10.83;45.63
76216;BME280;65010;50.190;18.930;2023-04-29T04:27:55;98033.81;;;10.88;45.81
76216;BME280;65010;50.190;18.930;2023-04-29T04:31:18;98028.13;;;10.85;46.07
76216;BME280;65010;50.190;18.930;2023-04-29T04:34:28;98018.22;;;10.87;45.74
76216;BME280;65010;50.190;18.930;2023-04-29T04:37:35;98016.78;;;10.84;46.09
76216;BME280;65010;50.190;18.930;2023-04-29T04:40:43;98012.22;;;10.93;46.43
76216;BME280;65010;50.190;18.930;2023-04-29T04:44:02;98013.44;;;10.91;46.11
76216;BME280;65010;50.190;18.930;2023-04-29T04:47:29;98023.38;;;10.95;46.51
76216;BME280;65010;50.190;18.930;2023-04-29T04:50:42;98021.78;;;10.94;46.42
76216;BME280;65010;50.190;18.930;2023-04-29T04:53:50;98018.41;;;11.00;46.44
76216;BME280;65010;50.190;18.930;2023-04-29T04:56:58;98022.13;;;11.06;46.76
76216;BME280;65010;50.190;18.930;2023-04-29T05:00:09;98030.91;;;10.98;47.06
76216;BME280;65010;50.190;18.930;2023-04-29T05:03:16;98027.91;;;11.01;47.54
76216;BME280;65010;50.190;18.930;2023-04-29T05:06:26;98032.63;;;11.06;47.31
76216;BME280;65010;50.190;18.930;2023-04-29T05:09:31;98029.44;;;11.11;47.65
76216;BME280;65010;50.190;18.930;2023-04-29T05:12:38;98022.41;;;11.18;47.33
76216;BME280;65010;50.190;18.930;2023-04-29T05:15:44;98026.63;;;11.27;47.56
76216;BME280;65010;50.190;18.930;2023-04-29T05:18:55;98030.50;;;11.31;47.32
76216;BME280;65010;50.190;18.930;2023-04-29T05:22:08;98026.75;;;11.40;47.66
76216;BME280;65010;50.190;18.930;2023-04-29T05:25:16;98023.38;;;11.46;47.63
76216;BME280;65010;50.190;18.930;2023-04-29T05:28:22;98023.00;;;11.49;47.41
76216;BME280;65010;50.190;18.930;2023-04-29T05:31:31;98025.63;;;11.49;47.99
76216;BME280;65010;50.190;18.930;2023-04-29T05:34:38;98028.81;;;11.45;48.38
76216;BME280;65010;50.190;18.930;2023-04-29T05:37:49;98025.56;;;11.43;48.49
76216;BME280;65010;50.190;18.930;2023-04-29T05:41:11;98018.25;;;11.38;49.12
76216;BME280;65010;50.190;18.930;2023-04-29T05:44:21;98020.78;;;11.32;49.22
76216;BME280;65010;50.190;18.930;2023-04-29T05:47:27;98035.19;;;11.36;49.52
76216;BME280;65010;50.190;18.930;2023-04-29T05:50:34;98033.34;;;11.51;50.38
76216;BME280;65010;50.190;18.930;2023-04-29T05:53:42;98040.00;;;11.68;49.82
76216;BME280;65010;50.190;18.930;2023-04-29T05:56:49;98035.00;;;11.80;49.77
76216;BME280;65010;50.190;18.930;2023-04-29T05:59:55;98035.66;;;11.82;49.84
76216;BME280;65010;50.190;18.930;2023-04-29T06:03:02;98033.84;;;11.83;50.54
76216;BME280;65010;50.190;18.930;2023-04-29T06:06:10;98036.69;;;11.88;50.86
76216;BME280;65010;50.190;18.930;2023-04-29T06:09:38;98033.09;;;11.89;50.72
76216;BME280;65010;50.190;18.930;2023-04-29T06:12:45;98029.09;;;12.00;50.87
76216;BME280;65010;50.190;18.930;2023-04-29T06:15:53;98025.84;;;11.98;50.73
76216;BME280;65010;50.190;18.930;2023-04-29T06:19:00;98030.34;;;12.04;50.29
76216;BME280;65010;50.190;18.930;2023-04-29T06:22:06;98025.09;;;12.04;50.76
76216;BME280;65010;50.190;18.930;2023-04-29T06:25:19;98029.16;;;12.06;51.25
76216;BME280;65010;50.190;18.930;2023-04-29T06:28:27;98017.13;;;11.97;50.69
76216;BME280;65010;50.190;18.930;2023-04-29T06:31:33;98027.16;;;12.08;51.17
76216;BME280;65010;50.190;18.930;2023-04-29T06:34:40;98032.91;;;12.19;51.13
76216;BME280;65010;50.190;18.930;2023-04-29T06:38:16;98015.56;;;12.31;51.22
76216;BME280;65010;50.190;18.930;2023-04-29T06:41:45;98015.72;;;12.51;50.88
76216;BME280;65010;50.190;18.930;2023-04-29T06:45:17;98015.13;;;12.56;50.53
76216;BME280;65010;50.190;18.930;2023-04-29T06:48:44;98024.53;;;12.65;50.62
76216;BME280;65010;50.190;18.930;2023-04-29T06:51:50;98017.56;;;12.57;50.73
76216;BME280;65010;50.190;18.930;2023-04-29T06:54:56;98021.59;;;12.53;50.70
76216;BME280;65010;50.190;18.930;2023-04-29T06:58:05;98026.44;;;12.50;50.73
76216;BME280;65010;50.190;18.930;2023-04-29T07:01:11;98020.69;;;12.39;51.51
76216;BME280;65010;50.190;18.930;2023-04-29T07:04:17;98027.97;;;12.37;51.93
76216;BME280;65010;50.190;18.930;2023-04-29T07:07:24;98018.84;;;12.40;52.73
76216;BME280;65010;50.190;18.930;2023-04-29T07:10:31;98020.50;;;12.41;52.55
76216;BME280;65010;50.190;18.930;2023-04-29T07:13:40;98017.03;;;12.40;52.45
76216;BME280;65010;50.190;18.930;2023-04-29T07:16:46;98025.34;;;12.37;53.20
76216;BME280;65010;50.190;18.930;2023-04-29T07:19:53;98004.06;;;12.39;53.20
76216;BME280;65010;50.190;18.930;2023-04-29T07:22:58;98019.28;;;12.43;53.23
76216;BME280;65010;50.190;18.930;2023-04-29T07:26:09;98017.03;;;12.40;53.02
76216;BME280;65010;50.190;18.930;2023-04-29T07:29:19;98021.59;;;12.53;53.68
76216;BME280;65010;50.190;18.930;2023-04-29T07:32:27;98021.81;;;12.58;53.36
76216;BME280;65010;50.190;18.930;2023-04-29T07:35:37;98031.25;;;12.74;53.27
76216;BME280;65010;50.190;18.930;2023-04-29T07:38:45;98031.56;;;12.99;52.84
76216;BME280;65010;50.190;18.930;2023-04-29T07:41:51;98024.34;;;13.21;52.58
76216;BME280;65010;50.190;18.930;2023-04-29T07:45:00;98022.56;;;13.42;52.10
76216;BME280;65010;50.190;18.930;2023-04-29T07:48:07;98019.97;;;13.62;51.44
76216;BME280;65010;50.190;18.930;2023-04-29T07:51:14;98019.78;;;13.70;50.53
76216;BME280;65010;50.190;18.930;2023-04-29T07:54:20;98016.75;;;13.86;50.89
76216;BME280;65010;50.190;18.930;2023-04-29T07:57:27;98025.69;;;14.12;50.47
76216;BME280;65010;50.190;18.930;2023-04-29T08:00:35;98029.31;;;14.31;49.68
76216;BME280;65010;50.190;18.930;2023-04-29T08:03:42;98027.47;;;14.45;49.56
76216;BME280;65010;50.190;18.930;2023-04-29T08:06:50;98022.34;;;14.63;49.75
76216;BME280;65010;50.190;18.930;2023-04-29T08:09:57;98029.69;;;14.75;49.22
76216;BME280;65010;50.190;18.930;2023-04-29T08:13:03;98018.69;;;14.71;47.84
76216;BME280;65010;50.190;18.930;2023-04-29T08:16:13;98027.84;;;14.68;48.11
76216;BME280;65010;50.190;18.930;2023-04-29T08:19:19;98018.06;;;14.69;48.47
76216;BME280;65010;50.190;18.930;2023-04-29T08:22:26;98018.22;;;14.87;47.73
76216;BME280;65010;50.190;18.930;2023-04-29T08:25:31;98009.78;;;15.11;47.49
76216;BME280;65010;50.190;18.930;2023-04-29T08:28:38;98017.84;;;15.29;46.71
76216;BME280;65010;50.190;18.930;2023-04-29T08:31:47;98010.06;;;15.66;46.21
76216;BME280;65010;50.190;18.930;2023-04-29T08:34:54;98013.44;;;16.49;44.57
76216;BME280;65010;50.190;18.930;2023-04-29T08:37:59;98004.69;;;17.03;42.75
76216;BME280;65010;50.190;18.930;2023-04-29T08:41:10;98009.41;;;17.20;42.38
76216;BME280;65010;50.190;18.930;2023-04-29T08:44:18;98012.13;;;17.43;41.34
76216;BME280;65010;50.190;18.930;2023-04-29T08:47:29;98012.50;;;17.59;40.89
76216;BME280;65010;50.190;18.930;2023-04-29T08:50:37;98014.59;;;17.57;41.14
76216;BME280;65010;50.190;18.930;2023-04-29T08:53:44;98001.25;;;17.75;40.76
76216;BME280;65010;50.190;18.930;2023-04-29T08:56:51;97992.63;;;18.39;40.31
76216;BME280;65010;50.190;18.930;2023-04-29T09:00:01;97998.09;;;18.84;38.45
76216;BME280;65010;50.190;18.930;2023-04-29T09:03:17;97995.03;;;19.62;38.86
76216;BME280;65010;50.190;18.930;2023-04-29T09:06:29;97998.88;;;20.39;34.58
76216;BME280;65010;50.190;18.930;2023-04-29T09:09:37;98000.56;;;20.45;34.26
76216;BME280;65010;50.190;18.930;2023-04-29T09:12:45;97998.50;;;20.30;33.93
76216;BME280;65010;50.190;18.930;2023-04-29T09:15:51;97997.84;;;19.89;34.74
76216;BME280;65010;50.190;18.930;2023-04-29T09:19:01;97993.06;;;19.40;35.51
76216;BME280;65010;50.190;18.930;2023-04-29T09:22:06;97990.25;;;19.47;36.03
76216;BME280;65010;50.190;18.930;2023-04-29T09:25:14;97997.03;;;19.26;36.09
76216;BME280;65010;50.190;18.930;2023-04-29T09:28:20;97997.75;;;18.93;36.67
76216;BME280;65010;50.190;18.930;2023-04-29T09:31:27;97999.63;;;18.80;37.18
76216;BME280;65010;50.190;18.930;2023-04-29T09:34:35;98009.38;;;18.28;37.14
76216;BME280;65010;50.190;18.930;2023-04-29T09:37:43;98002.66;;;17.90;38.31
76216;BME280;65010;50.190;18.930;2023-04-29T09:40:49;98006.22;;;17.41;39.11
76216;BME280;65010;50.190;18.930;2023-04-29T09:44:03;98008.81;;;17.18;40.13
76216;BME280;65010;50.190;18.930;2023-04-29T09:47:10;98003.97;;;17.26;39.98
76216;BME280;65010;50.190;18.930;2023-04-29T09:50:19;98010.31;;;17.25;39.87
76216;BME280;65010;50.190;18.930;2023-04-29T09:53:28;98008.41;;;17.33;40.20
76216;BME280;65010;50.190;18.930;2023-04-29T09:56:48;98007.75;;;17.19;40.29
76216;BME280;65010;50.190;18.930;2023-04-29T09:59:54;98015.09;;;17.05;40.78
76216;BME280;65010;50.190;18.930;2023-04-29T10:03:04;98014.09;;;16.88;41.10
76216;BME280;65010;50.190;18.930;2023-04-29T10:06:16;98010.53;;;16.75;41.83
76216;BME280;65010;50.190;18.930;2023-04-29T10:09:23;98012.03;;;16.90;41.70
76216;BME280;65010;50.190;18.930;2023-04-29T10:12:30;98019.09;;;16.77;41.21
76216;BME280;65010;50.190;18.930;2023-04-29T10:15:51;98011.97;;;16.78;41.08
76216;BME280;65010;50.190;18.930;2023-04-29T10:19:04;98018.44;;;16.82;40.94
76216;BME280;65010;50.190;18.930;2023-04-29T10:22:28;98012.75;;;16.78;41.15
76216;BME280;65010;50.190;18.930;2023-04-29T10:25:39;98020.78;;;16.90;41.50
76216;BME280;65010;50.190;18.930;2023-04-29T10:28:50;98008.59;;;17.01;41.32
76216;BME280;65010;50.190;18.930;2023-04-29T10:31:56;98006.25;;;16.93;40.96
76216;BME280;65010;50.190;18.930;2023-04-29T10:35:07;98013.56;;;16.79;41.93
76216;BME280;65010;50.190;18.930;2023-04-29T10:38:24;98010.22;;;16.65;41.84
76216;BME280;65010;50.190;18.930;2023-04-29T10:41:42;98008.31;;;16.54;41.92
76216;BME280;65010;50.190;18.930;2023-04-29T10:45:20;98018.94;;;16.29;42.28
76216;BME280;65010;50.190;18.930;2023-04-29T10:48:28;98015.25;;;16.11;42.74
76216;BME280;65010;50.190;18.930;2023-04-29T10:51:39;98009.41;;;16.02;42.91
76216;BME280;65010;50.190;18.930;2023-04-29T10:55:01;98006.72;;;16.09;43.11
76216;BME280;65010;50.190;18.930;2023-04-29T10:58:34;98008.81;;;16.00;43.26
76216;BME280;65010;50.190;18.930;2023-04-29T11:01:45;98008.66;;;15.95;43.33
76216;BME280;65010;50.190;18.930;2023-04-29T11:05:07;98005.88;;;16.09;43.25
76216;BME280;65010;50.190;18.930;2023-04-29T11:08:20;98012.44;;;16.06;43.13
76216;BME280;65010;50.190;18.930;2023-04-29T11:11:46;98003.50;;;16.00;43.47
76216;BME280;65010;50.190;18.930;2023-04-29T11:15:08;98014.56;;;15.97;43.59
76216;BME280;65010;50.190;18.930;2023-04-29T11:18:14;98015.63;;;15.90;44.58
76216;BME280;65010;50.190;18.930;2023-04-29T11:21:21;98019.25;;;15.63;45.59
76216;BME280;65010;50.190;18.930;2023-04-29T11:24:28;98028.47;;;15.54;46.88
76216;BME280;65010;50.190;18.930;2023-04-29T11:27:38;98026.34;;;15.38;49.79
76216;BME280;65010;50.190;18.930;2023-04-29T11:30:46;98012.69;;;15.34;50.66
76216;BME280;65010;50.190;18.930;2023-04-29T11:33:54;98013.88;;;15.45;50.28
76216;BME280;65010;50.190;18.930;2023-04-29T11:37:00;98025.94;;;15.41;50.14
76216;BME280;65010;50.190;18.930;2023-04-29T11:40:08;98029.19;;;15.36;50.34
76216;BME280;65010;50.190;18.930;2023-04-29T11:43:22;98037.13;;;15.36;51.45
76216;BME280;65010;50.190;18.930;2023-04-29T11:46:30;98031.47;;;15.33;51.57
76216;BME280;65010;50.190;18.930;2023-04-29T11:49:37;98023.28;;;15.41;52.18
76216;BME280;65010;50.190;18.930;2023-04-29T11:52:46;98025.69;;;15.42;51.18
76216;BME280;65010;50.190;18.930;2023-04-29T11:55:53;98010.91;;;15.60;51.37
76216;BME280;65010;50.190;18.930;2023-04-29T11:59:03;98024.84;;;15.87;50.81
76216;BME280;65010;50.190;18.930;2023-04-29T12:02:11;98016.47;;;16.34;49.50
76216;BME280;65010;50.190;18.930;2023-04-29T12:05:18;98010.56;;;17.05;45.92
76216;BME280;65010;50.190;18.930;2023-04-29T12:08:25;98012.59;;;18.06;45.50
76216;BME280;65010;50.190;18.930;2023-04-29T12:11:33;98008.13;;;19.35;42.01
76216;BME280;65010;50.190;18.930;2023-04-29T12:14:43;98002.34;;;20.78;38.98
76216;BME280;65010;50.190;18.930;2023-04-29T12:17:50;97993.94;;;22.00;36.98
76216;BME280;65010;50.190;18.930;2023-04-29T12:20:57;97986.34;;;22.67;33.87
76216;BME280;65010;50.190;18.930;2023-04-29T12:24:04;97988.13;;;23.14;33.11
76216;BME280;65010;50.190;18.930;2023-04-29T12:27:10;97986.59;;;23.54;31.40
76216;BME280;65010;50.190;18.930;2023-04-29T12:30:19;97983.88;;;23.34;32.70
76216;BME280;65010;50.190;18.930;2023-04-29T12:33:26;97984.44;;;23.36;32.08
76216;BME280;65010;50.190;18.930;2023-04-29T12:36:34;97979.91;;;23.62;31.70
76216;BME280;65010;50.190;18.930;2023-04-29T12:39:40;97973.72;;;23.97;30.07
76216;BME280;65010;50.190;18.930;2023-04-29T12:42:47;97966.91;;;24.41;30.04
76216;BME280;65010;50.190;18.930;2023-04-29T12:45:59;97972.28;;;25.11;29.36
76216;BME280;65010;50.190;18.930;2023-04-29T12:49:07;97965.06;;;25.02;28.47
76216;BME280;65010;50.190;18.930;2023-04-29T12:52:13;97965.72;;;24.78;28.83
76216;BME280;65010;50.190;18.930;2023-04-29T12:55:20;97968.00;;;24.35;29.97
76216;BME280;65010;50.190;18.930;2023-04-29T12:58:27;97951.72;;;23.90;31.12
76216;BME280;65010;50.190;18.930;2023-04-29T13:01:37;97955.16;;;23.14;32.14
76216;BME280;65010;50.190;18.930;2023-04-29T13:04:43;97954.00;;;22.94;33.32
76216;BME280;65010;50.190;18.930;2023-04-29T13:07:50;97949.91;;;22.66;31.75
76216;BME280;65010;50.190;18.930;2023-04-29T13:10:56;97955.47;;;22.07;33.75
76216;BME280;65010;50.190;18.930;2023-04-29T13:14:03;97954.66;;;21.41;34.48
76216;BME280;65010;50.190;18.930;2023-04-29T13:17:12;97960.88;;;20.93;36.01
76216;BME280;65010;50.190;18.930;2023-04-29T13:20:19;97960.47;;;20.40;37.19
76216;BME280;65010;50.190;18.930;2023-04-29T13:23:24;97948.63;;;19.97;38.84
76216;BME280;65010;50.190;18.930;2023-04-29T13:26:31;97954.94;;;19.40;39.76
76216;BME280;65010;50.190;18.930;2023-04-29T13:29:36;97957.06;;;19.26;39.82
76216;BME280;65010;50.190;18.930;2023-04-29T13:32:45;97953.25;;;19.34;38.75
76216;BME280;65010;50.190;18.930;2023-04-29T13:35:59;97949.56;;;19.52;38.48
76216;BME280;65010;50.190;18.930;2023-04-29T13:39:06;97948.13;;;20.34;36.44
76216;BME280;65010;50.190;18.930;2023-04-29T13:42:11;97935.19;;;20.92;35.55
76216;BME280;65010;50.190;18.930;2023-04-29T13:45:18;97928.19;;;21.67;33.74
76216;BME280;65010;50.190;18.930;2023-04-29T13:48:26;97926.94;;;22.86;31.88
76216;BME280;65010;50.190;18.930;2023-04-29T13:51:52;97922.44;;;23.99;30.41
76216;BME280;65010;50.190;18.930;2023-04-29T13:55:01;97929.06;;;24.43;29.62
76216;BME280;65010;50.190;18.930;2023-04-29T13:58:27;97922.25;;;24.66;28.92
76216;BME280;65010;50.190;18.930;2023-04-29T14:01:53;97918.50;;;24.62;28.65
76216;BME280;65010;50.190;18.930;2023-04-29T14:05:05;97925.78;;;24.61;29.38
76216;BME280;65010;50.190;18.930;2023-04-29T14:08:11;97920.47;;;24.40;29.25
76216;BME280;65010;50.190;18.930;2023-04-29T14:11:22;97933.50;;;23.82;30.67
76216;BME280;65010;50.190;18.930;2023-04-29T14:14:29;97935.22;;;22.84;32.36
76216;BME280;65010;50.190;18.930;2023-04-29T14:17:38;97921.94;;;21.94;33.39
76216;BME280;65010;50.190;18.930;2023-04-29T14:20:46;97939.44;;;21.42;34.57
76216;BME280;65010;50.190;18.930;2023-04-29T14:23:53;97941.38;;;21.19;35.30
76216;BME280;65010;50.190;18.930;2023-04-29T14:26:59;97942.66;;;20.68;35.37
76216;BME280;65010;50.190;18.930;2023-04-29T14:30:08;97937.69;;;20.32;36.26
76216;BME280;65010;50.190;18.930;2023-04-29T14:33:14;97948.25;;;19.88;37.79
76216;BME280;65010;50.190;18.930;2023-04-29T14:36:23;97942.75;;;19.44;38.63
76216;BME280;65010;50.190;18.930;2023-04-29T14:39:29;97944.03;;;19.13;39.64
76216;BME280;65010;50.190;18.930;2023-04-29T14:42:36;97943.59;;;18.87;40.46
76216;BME280;65010;50.190;18.930;2023-04-29T14:45:45;97935.44;;;18.94;39.66
76216;BME280;65010;50.190;18.930;2023-04-29T14:48:52;97947.59;;;18.61;40.35
76216;BME280;65010;50.190;18.930;2023-04-29T14:52:00;97941.69;;;18.47;40.85
76216;BME280;65010;50.190;18.930;2023-04-29T14:55:07;97949.91;;;18.45;41.19
76216;BME280;65010;50.190;18.930;2023-04-29T14:58:12;97947.84;;;18.36;40.85
76216;BME280;65010;50.190;18.930;2023-04-29T15:01:19;97948.34;;;18.21;41.25
76216;BME280;65010;50.190;18.930;2023-04-29T15:04:25;97944.03;;;18.08;41.68
76216;BME280;65010;50.190;18.930;2023-04-29T15:07:34;97944.63;;;18.22;41.75
76216;BME280;65010;50.190;18.930;2023-04-29T15:10:40;97946.69;;;18.43;41.88
76216;BME280;65010;50.190;18.930;2023-04-29T15:13:47;97942.38;;;18.54;42.09
76216;BME280;65010;50.190;18.930;2023-04-29T15:16:52;97947.25;;;18.57;41.90
76216;BME280;65010;50.190;18.930;2023-04-29T15:19:59;97951.19;;;18.43;41.33
76216;BME280;65010;50.190;18.930;2023-04-29T15:23:07;97942.16;;;18.32;41.49
76216;BME280;65010;50.190;18.930;2023-04-29T15:26:14;97949.38;;;18.08;42.37
76216;BME280;65010;50.190;18.930;2023-04-29T15:29:20;97945.53;;;18.16;42.93
76216;BME280;65010;50.190;18.930;2023-04-29T15:32:26;97948.22;;;18.16;42.20
76216;BME280;65010;50.190;18.930;2023-04-29T15:35:35;97956.31;;;17.97;42.39
76216;BME280;65010;50.190;18.930;2023-04-29T15:38:44;97960.13;;;17.90;42.04
76216;BME280;65010;50.190;18.930;2023-04-29T15:41:50;97961.75;;;17.79;42.15
76216;BME280;65010;50.190;18.930;2023-04-29T15:44:56;97949.53;;;17.59;42.60
76216;BME280;65010;50.190;18.930;2023-04-29T15:48:02;97951.56;;;17.64;43.11
76216;BME280;65010;50.190;18.930;2023-04-29T15:51:09;97960.56;;;17.63;43.20
76216;BME280;65010;50.190;18.930;2023-04-29T15:54:19;97956.78;;;17.40;44.01
76216;BME280;65010;50.190;18.930;2023-04-29T15:57:25;97967.63;;;17.39;44.36
76216;BME280;65010;50.190;18.930;2023-04-29T16:00:32;97966.75;;;17.15;44.78
76216;BME280;65010;50.190;18.930;2023-04-29T16:03:39;97967.84;;;16.77;46.48
76216;BME280;65010;50.190;18.930;2023-04-29T16:06:44;97969.69;;;16.58;47.73
76216;BME280;65010;50.190;18.930;2023-04-29T16:09:54;97976.09;;;16.50;47.79
76216;BME280;65010;50.190;18.930;2023-04-29T16:12:59;97977.19;;;16.61;48.17
76216;BME280;65010;50.190;18.930;2023-04-29T16:16:06;97984.66;;;16.71;47.91
76216;BME280;65010;50.190;18.930;2023-04-29T16:19:12;97987.38;;;16.64;47.27
76216;BME280;65010;50.190;18.930;2023-04-29T16:22:19;97979.78;;;16.67;46.99
76216;BME280;65010;50.190;18.930;2023-04-29T16:25:27;97979.50;;;16.57;45.69
76216;BME280;65010;50.190;18.930;2023-04-29T16:28:34;97975.34;;;16.43;45.74
76216;BME280;65010;50.190;18.930;2023-04-29T16:31:40;97982.41;;;16.31;46.39